Time;durP1;ratioP1;P1;durP2;ratioP2;P2;SDS_P1;SDS_P2;PMS_P1;PMS_P2;Temp;Humidity;BMP_temperature;BMP_pressure;BME280_temperature;BME280_humidity;BME280_pressure;Samples;Min_cycle;Max_cycle;Signal;HPM_P1;HPM_P2
2022/12/30 00:00:49;;;;;;;15.98;2.88;;;;;;;9.87;68.90;100968.22;5005038;28;20372;-41
2022/12/30 00:03:14;;;;;;;15.52;2.47;;;;;;;9.55;70.68;100978.91;5001006;28;20092;-40
2022/12/30 00:05:39;;;;;;;15.40;2.63;;;;;;;9.74;69.65;100981.00;5005266;28;20446;-41
2022/12/30 00:08:45;;;;;;;12.32;2.20;;;;;;;9.72;69.85;100981.81;4999764;28;20084;-41
2022/12/30 00:10:50;;;;;;;12.13;2.30;;;;;;;9.98;68.36;100979.69;5005021;28;20042;-41
2022/12/30 00:35:20;;;;;;;14.20;2.00;;;;;;;9.71;69.57;100974.84;5001553;28;20073;-42
2022/12/30 00:37:45;;;;;;;9.77;1.77;;;;;;;9.49;71.08;100967.50;5004887;28;20070;-39
2022/12/30 00:40:11;;;;;;;14.43;1.90;;;;;;;9.64;70.32;100978.19;5000904;28;20049;-43
2022/12/30 00:45:23;;;;;;;11.30;1.95;;;;;;;9.44;70.41;100985.63;5000759;28;20095;-41
2022/12/30 00:47:48;;;;;;;13.82;2.25;;;;;;;9.51;70.30;100981.44;5004396;28;20030;-42
2022/12/30 00:58:27;;;;;;;10.93;1.63;;;;;;;9.85;70.06;100989.00;5000385;28;20341;-40
2022/12/30 01:00:53;;;;;;;13.32;2.00;;;;;;;10.02;68.60;100990.19;5004024;28;20034;-40
2022/12/30 01:03:18;;;;;;;10.02;1.85;;;;;;;9.97;68.67;100991.84;4999162;28;20443;-41
2022/12/30 01:05:44;;;;;;;11.32;1.90;;;;;;;9.71;68.94;100999.16;5003949;28;20037;-46
2022/12/30 01:08:09;;;;;;;9.82;1.70;;;;;;;9.78;69.62;100993.22;5000524;28;20066;-44
2022/12/30 01:10:38;;;;;;;10.95;1.88;;;;;;;9.92;69.26;101009.09;5004092;28;20442;-41
2022/12/30 01:13:03;;;;;;;14.63;2.13;;;;;;;9.82;68.49;101012.38;5000379;28;20088;-44
2022/12/30 01:15:28;;;;;;;10.60;1.95;;;;;;;9.82;68.61;101014.97;5002989;28;20046;-42
2022/12/30 01:17:54;;;;;;;15.10;2.08;;;;;;;9.73;69.71;101013.09;5004341;28;20087;-40
2022/12/30 01:20:19;;;;;;;12.52;2.00;;;;;;;9.77;69.14;101020.09;4999855;28;20034;-40
2022/12/30 01:22:44;;;;;;;12.57;2.28;;;;;;;9.71;69.43;101013.91;5003811;28;20038;-40
2022/12/30 01:25:09;;;;;;;11.55;2.10;;;;;;;9.81;69.61;101013.25;4999871;28;20402;-37
2022/12/30 01:27:35;;;;;;;12.43;2.10;;;;;;;9.55;70.58;101015.34;5004161;28;20034;-41
2022/12/30 01:30:00;;;;;;;11.23;2.00;;;;;;;9.72;69.77;101021.75;5003330;28;20053;-42
2022/12/30 01:32:29;;;;;;;9.55;2.20;;;;;;;9.40;71.21;101024.56;4999789;28;20068;-41
2022/12/30 01:34:55;;;;;;;14.75;2.17;;;;;;;9.34;71.96;101027.91;5003549;28;20410;-41
2022/12/30 01:37:21;;;;;;;11.07;1.98;;;;;;;9.66;70.88;101021.63;4999764;28;20128;-40
2022/12/30 01:39:46;;;;;;;9.23;1.90;;;;;;;9.58;70.87;101022.31;5003067;28;20026;-45
2022/12/30 01:42:22;;;;;;;14.13;2.10;;;;;;;9.52;70.51;101017.00;4999929;28;20084;-40
2022/12/30 01:45:23;;;;;;;12.18;1.90;;;;;;;9.62;70.23;101018.94;5003279;28;20109;-40
2022/12/30 01:48:02;;;;;;;9.60;2.05;;;;;;;9.44;70.93;101008.19;5000069;28;20046;-39
2022/12/30 01:50:47;;;;;;;13.05;1.95;;;;;;;9.51;70.89;101015.25;5000130;28;20033;-38
2022/12/30 01:53:17;;;;;;;12.88;1.92;;;;;;;9.61;70.10;101012.88;4999380;28;20060;-41
2022/12/30 01:55:47;;;;;;;13.40;2.00;;;;;;;9.41;71.05;101016.78;5003729;28;20038;-42
2022/12/30 01:58:21;;;;;;;12.88;2.05;;;;;;;9.46;71.01;101003.84;4999720;28;20332;-41
2022/12/30 02:00:46;;;;;;;14.23;2.15;;;;;;;9.53;70.79;100993.59;5003539;28;20126;-41
2022/12/30 02:03:13;;;;;;;8.90;2.30;;;;;;;9.67;70.32;100996.47;4999840;28;20116;-41
2022/12/30 02:05:41;;;;;;;11.20;2.20;;;;;;;9.57;70.27;100992.84;5003786;28;20383;-41
2022/12/30 02:08:11;;;;;;;10.35;2.00;;;;;;;9.82;69.73;100994.16;4999537;28;20037;-41
2022/12/30 02:10:38;;;;;;;13.70;2.00;;;;;;;9.70;69.73;100987.00;5003631;28;20030;-41
2022/12/30 02:13:04;;;;;;;12.73;2.10;;;;;;;9.61;70.36;100979.03;5000047;28;20106;-44
2022/12/30 02:15:55;;;;;;;11.45;2.17;;;;;;;9.52;71.38;100983.16;5003650;28;20038;-43
2022/12/30 02:18:29;;;;;;;6.88;1.92;;;;;;;9.75;69.30;100982.78;4999886;28;20104;-42
2022/12/30 02:21:22;;;;;;;8.38;1.83;;;;;;;9.66;69.82;100985.19;5003566;28;20478;-41
2022/12/30 02:24:16;;;;;;;7.75;1.95;;;;;;;9.61;69.56;100989.44;5001613;28;20026;-41
2022/12/30 02:27:01;;;;;;;12.02;2.30;;;;;;;9.57;69.88;100992.84;5002158;28;20041;-38
2022/12/30 02:29:35;;;;;;;12.75;2.38;;;;;;;9.58;70.17;100993.69;5001529;28;20033;-40
2022/12/30 02:32:12;;;;;;;13.18;2.40;;;;;;;9.63;69.67;100995.56;5002523;28;20136;-42
2022/12/30 02:34:54;;;;;;;10.40;2.60;;;;;;;9.48;70.29;100995.25;4999684;28;20418;-41
2022/12/30 02:37:22;;;;;;;11.32;2.33;;;;;;;9.39;70.68;100987.28;4999029;28;20124;-41
2022/12/30 02:39:58;;;;;;;12.93;2.40;;;;;;;9.62;70.25;100986.00;5003020;28;20041;-41
2022/12/30 02:45:30;;;;;;;15.43;2.92;;;;;;;9.37;70.90;100996.75;5002721;28;20525;-40
2022/12/30 02:48:03;;;;;;;10.50;2.20;;;;;;;9.58;70.25;100991.97;5006924;28;20121;-41
2022/12/30 02:53:20;;;;;;;11.43;2.35;;;;;;;9.72;69.32;100974.88;5005627;28;20061;-42
2022/12/30 02:55:46;;;;;;;10.43;2.55;;;;;;;9.67;69.31;100978.25;5009302;28;20072;-40
2022/12/30 02:58:12;;;;;;;12.30;2.40;;;;;;;9.62;69.50;100982.50;5004021;28;20450;-42
2022/12/30 03:04:23;;;;;;;15.13;2.45;;;;;;;9.31;70.94;100975.81;4978099;28;20619;-41
2022/12/30 03:07:08;;;;;;;15.07;2.58;;;;;;;9.33;70.73;100975.00;5006808;28;20092;-40
2022/12/30 03:11:12;;;;;;;12.38;2.53;;;;;;;9.49;70.42;100972.72;5026947;22;20038;-42
2022/12/30 03:12:39;;;;;;;15.95;2.45;;;;;;;9.24;70.81;100971.34;5002631;28;20096;-43
2022/12/30 03:15:08;;;;;;;;;;;;;;;9.46;69.75;100964.81;5003495;28;20064;-42
2022/12/30 03:17:38;;;;;;;9.50;2.38;;;;;;;9.38;70.37;100969.03;5008070;28;19921;-42
2022/12/30 03:20:10;;;;;;;9.85;2.70;;;;;;;9.35;69.85;100965.50;5004838;28;20449;-44
2022/12/30 03:28:20;;;;;;;12.40;2.53;;;;;;;9.31;70.02;100963.69;5002710;28;20409;-45
2022/12/30 03:30:51;;;;;;;11.35;2.72;;;;;;;9.28;69.70;100958.41;5006863;28;20048;-41
2022/12/30 03:33:18;;;;;;;12.88;2.83;;;;;;;9.28;69.64;100957.53;5003904;28;20030;-45
2022/12/30 03:35:52;;;;;;;14.50;3.15;;;;;;;9.27;69.86;100958.41;5007068;28;20564;-41
2022/12/30 03:38:22;;;;;;;14.98;2.90;;;;;;;9.16;70.15;100955.56;5003659;28;20034;-42
2022/12/30 03:40:50;;;;;;;13.38;2.65;;;;;;;9.22;69.38;100955.69;5007053;28;20033;-42
2022/12/30 03:43:15;;;;;;;12.73;2.97;;;;;;;9.11;69.63;100949.41;5002137;28;20048;-43
2022/12/30 03:45:41;;;;;;;15.82;3.08;;;;;;;9.13;69.65;100939.94;5005221;28;20025;-46
2022/12/30 03:48:06;;;;;;;19.08;3.05;;;;;;;9.20;69.52;100946.13;5001438;28;20038;-42
2022/12/30 03:50:32;;;;;;;15.25;3.10;;;;;;;8.87;70.45;100943.69;5005089;28;20030;-44
2022/12/30 03:52:57;;;;;;;12.25;2.72;;;;;;;9.10;70.06;100939.84;5005684;28;20046;-41
2022/12/30 03:55:22;;;;;;;14.00;3.05;;;;;;;9.06;70.18;100947.56;5001219;28;20041;-42
2022/12/30 03:57:48;;;;;;;16.25;3.00;;;;;;;9.12;69.64;100950.28;5005297;28;20038;-42
2022/12/30 04:00:13;;;;;;;11.88;2.80;;;;;;;9.10;70.10;100939.84;5001237;28;20034;-41
2022/12/30 04:02:39;;;;;;;13.38;2.50;;;;;;;9.02;69.62;100938.84;5005744;28;20144;-41
2022/12/30 04:05:05;;;;;;;9.38;2.92;;;;;;;9.09;69.85;100945.03;5002212;28;20040;-42
2022/12/30 04:07:31;;;;;;;14.27;3.20;;;;;;;9.01;69.77;100937.06;5005627;28;20033;-45
2022/12/30 04:09:57;;;;;;;10.80;2.75;;;;;;;9.02;69.95;100936.22;5005419;28;20041;-41
2022/12/30 04:12:22;;;;;;;8.35;2.78;;;;;;;8.99;69.62;100930.94;5001540;28;20501;-43
2022/12/30 04:14:48;;;;;;;11.38;2.72;;;;;;;8.87;70.30;100926.38;5005870;28;20111;-42
2022/12/30 04:17:13;;;;;;;11.68;2.90;;;;;;;9.12;69.33;100929.47;5001874;28;20038;-41
2022/12/30 04:19:38;;;;;;;11.57;2.50;;;;;;;9.14;69.64;100920.00;5005427;28;20041;-43
2022/12/30 04:22:04;;;;;;;14.35;2.80;;;;;;;9.21;69.29;100932.28;5002809;28;20049;-42
2022/12/30 04:24:29;;;;;;;12.02;2.63;;;;;;;9.18;69.05;100933.09;5006763;28;20038;-42
2022/12/30 04:26:54;;;;;;;10.18;2.60;;;;;;;9.32;68.24;100930.75;5006537;28;20133;-40
2022/12/30 04:29:20;;;;;;;10.98;2.58;;;;;;;9.24;68.46;100941.00;5002401;28;20041;-40
2022/12/30 04:31:45;;;;;;;13.77;2.58;;;;;;;9.21;68.79;100940.09;5006239;28;20034;-43
2022/12/30 04:34:12;;;;;;;13.20;2.80;;;;;;;9.14;68.58;100928.69;5002159;28;20034;-43
2022/12/30 04:36:38;;;;;;;12.80;2.45;;;;;;;9.26;68.63;100928.03;5006196;28;20505;-42
2022/12/30 04:39:03;;;;;;;13.18;2.70;;;;;;;9.07;69.05;100925.91;5002350;28;20026;-42
2022/12/30 04:41:28;;;;;;;15.45;2.97;;;;;;;9.02;69.40;100924.94;5006106;28;20045;-41
2022/12/30 04:43:54;;;;;;;15.02;3.22;;;;;;;9.06;69.59;100925.03;5007111;28;20034;-46
2022/12/30 04:46:19;;;;;;;9.75;2.80;;;;;;;9.04;69.58;100923.25;5007102;28;20037;-41
2022/12/30 04:48:44;;;;;;;12.68;2.90;;;;;;;9.12;68.95;100919.06;5009854;28;20034;-45
2022/12/30 04:51:11;;;;;;;11.45;2.58;;;;;;;8.96;69.67;100910.94;5001971;28;20038;-43
2022/12/30 04:53:36;;;;;;;10.57;2.67;;;;;;;8.96;69.88;100904.91;5004762;28;20032;-43
2022/12/30 04:56:02;;;;;;;14.77;2.97;;;;;;;8.76;70.01;100901.88;5004328;28;20414;-44
2022/12/30 04:58:27;;;;;;;14.82;2.80;;;;;;;8.92;69.62;100908.25;5000611;28;20120;-41
2022/12/30 05:00:52;;;;;;;11.02;2.55;;;;;;;9.04;69.33;100910.22;5003848;28;20044;-42
2022/12/30 05:03:19;;;;;;;11.10;2.58;;;;;;;8.97;69.45;100906.63;5000035;28;20045;-40
2022/12/30 05:05:46;;;;;;;10.52;2.70;;;;;;;9.02;69.30;100910.22;5003109;28;20140;-44
2022/12/30 05:08:11;;;;;;;10.25;2.72;;;;;;;8.93;69.52;100905.69;5001442;28;20096;-42
2022/12/30 05:10:38;;;;;;;10.93;2.63;;;;;;;8.78;70.09;100899.31;5004703;28;20037;-43
2022/12/30 05:13:04;;;;;;;9.57;2.47;;;;;;;8.86;69.55;100906.41;5005911;28;20042;-42
2022/12/30 05:15:30;;;;;;;10.25;2.80;;;;;;;8.76;69.76;100901.88;5008866;28;20498;-43
2022/12/30 05:17:55;;;;;;;9.63;2.72;;;;;;;8.96;69.74;100920.50;5010299;28;20064;-44
2022/12/30 05:20:21;;;;;;;15.60;2.80;;;;;;;9.06;69.23;100912.03;5001728;28;20513;-41
2022/12/30 05:22:46;;;;;;;9.38;2.70;;;;;;;9.13;69.01;100903.50;5005506;28;20068;-43
2022/12/30 05:27:55;;;;;;;13.05;2.50;;;;;;;9.06;68.68;100911.16;5007361;28;20518;-42
2022/12/30 05:30:21;;;;;;;10.50;2.70;;;;;;;8.78;69.78;100901.94;5003055;28;20034;-40
2022/12/30 05:32:46;;;;;;;11.23;2.63;;;;;;;9.13;68.72;100902.63;5003673;28;20560;-43
2022/12/30 05:35:12;;;;;;;9.52;2.72;;;;;;;9.01;69.41;100898.06;4999873;28;20461;-41
2022/12/30 05:37:37;;;;;;;12.63;2.75;;;;;;;9.09;68.81;100891.28;5003427;28;20087;-41
2022/12/30 05:40:04;;;;;;;13.32;2.80;;;;;;;8.93;69.34;100890.09;4999339;28;20414;-42
2022/12/30 05:42:29;;;;;;;14.63;2.72;;;;;;;8.94;68.84;100877.97;5002871;28;20076;-45
2022/12/30 05:44:55;;;;;;;12.82;2.80;;;;;;;8.87;69.52;100879.59;5003315;28;20034;-42
2022/12/30 05:47:20;;;;;;;8.43;2.65;;;;;;;9.09;68.81;100877.41;4998334;28;20402;-42
2022/12/30 05:49:46;;;;;;;10.80;3.05;;;;;;;8.99;68.54;100873.75;5003069;28;20494;-42
2022/12/30 05:52:11;;;;;;;13.68;2.80;;;;;;;8.93;68.98;100871.91;4999092;28;20026;-42
2022/12/30 05:54:36;;;;;;;13.88;3.10;;;;;;;8.96;69.06;100871.94;5003236;28;20080;-42
2022/12/30 05:57:02;;;;;;;15.43;3.03;;;;;;;8.96;69.42;100868.50;5002898;28;20465;-42
2022/12/30 05:59:27;;;;;;;11.73;3.00;;;;;;;8.99;68.83;100862.47;4999674;28;20467;-44
2022/12/30 06:01:52;;;;;;;12.55;3.28;;;;;;;8.74;69.99;100855.91;5003062;28;20052;-43
2022/12/30 06:04:18;;;;;;;13.40;2.78;;;;;;;8.92;69.01;100849.34;4999755;28;20053;-41
2022/12/30 06:06:43;;;;;;;16.95;3.22;;;;;;;8.92;69.16;100857.16;5003089;28;20042;-43
2022/12/30 06:09:09;;;;;;;12.48;2.92;;;;;;;8.78;68.85;100848.19;4999151;28;20533;-43
2022/12/30 06:11:34;;;;;;;11.00;2.85;;;;;;;8.68;69.50;100848.84;5002545;28;20490;-43
2022/12/30 06:13:59;;;;;;;11.20;3.20;;;;;;;8.81;69.42;100857.78;5002747;28;20553;-42
2022/12/30 06:16:25;;;;;;;12.27;3.00;;;;;;;8.66;69.75;100850.53;4998541;28;20461;-42
2022/12/30 06:18:50;;;;;;;15.07;3.17;;;;;;;8.80;69.60;100849.09;5003060;28;20044;-43
2022/12/30 06:21:15;;;;;;;14.30;3.30;;;;;;;8.87;69.19;100842.31;4999203;28;20030;-41
2022/12/30 06:23:40;;;;;;;17.20;3.65;;;;;;;8.65;69.70;100837.53;5003207;28;20517;-41
2022/12/30 06:26:06;;;;;;;15.13;3.40;;;;;;;8.73;69.14;100825.56;4999089;28;20149;-40
2022/12/30 06:28:31;;;;;;;14.63;3.00;;;;;;;8.67;69.91;100830.63;5003496;28;20033;-45
2022/12/30 06:30:57;;;;;;;12.73;3.42;;;;;;;8.85;69.20;100831.00;5006028;28;20044;-39
2022/12/30 06:33:23;;;;;;;12.75;3.20;;;;;;;8.84;68.81;100827.50;5002161;28;20118;-42
2022/12/30 06:35:48;;;;;;;11.57;3.20;;;;;;;8.81;69.08;100831.78;5002792;28;20033;-44
2022/12/30 06:38:14;;;;;;;17.15;3.85;;;;;;;8.62;69.97;100825.34;4998989;28;20045;-41
2022/12/30 06:40:39;;;;;;;13.02;3.42;;;;;;;8.84;68.96;100813.66;5002245;28;20045;-43
2022/12/30 06:43:04;;;;;;;13.93;3.55;;;;;;;8.79;69.04;100810.06;4999072;28;20117;-44
2022/12/30 06:45:30;;;;;;;11.88;3.28;;;;;;;8.70;69.37;100812.50;5007398;28;20558;-42
2022/12/30 06:47:55;;;;;;;12.55;3.72;;;;;;;8.52;69.81;100797.44;5012458;28;20568;-41
2022/12/30 06:50:21;;;;;;;11.93;3.50;;;;;;;8.68;69.12;100799.47;5008314;28;20038;-43
2022/12/30 06:52:46;;;;;;;14.00;3.15;;;;;;;8.68;69.04;100785.59;5003136;28;20030;-45
2022/12/30 06:55:11;;;;;;;15.40;3.30;;;;;;;8.71;68.77;100794.34;4997520;28;20045;-45
2022/12/30 06:57:37;;;;;;;12.05;3.53;;;;;;;8.73;68.74;100791.75;5002769;28;20065;-42
2022/12/30 07:00:06;;;;;;;17.92;3.58;;;;;;;8.49;69.54;100782.63;5000221;28;20120;-40
2022/12/30 07:02:31;;;;;;;12.25;3.45;;;;;;;8.52;70.21;100776.66;5000822;28;20034;-43
2022/12/30 07:04:57;;;;;;;14.05;3.40;;;;;;;8.65;69.70;100776.03;5002695;28;20148;-45
2022/12/30 07:07:22;;;;;;;15.60;3.45;;;;;;;8.77;68.62;100763.28;4998754;28;20034;-42
2022/12/30 07:09:47;;;;;;;13.23;3.30;;;;;;;8.66;69.12;100756.13;5002163;28;20402;-43
2022/12/30 07:12:13;;;;;;;15.82;3.75;;;;;;;8.69;69.03;100758.78;4998574;28;20092;-42
2022/12/30 07:14:38;;;;;;;15.70;3.75;;;;;;;8.47;69.88;100755.78;5002008;28;20129;-44
2022/12/30 07:17:04;;;;;;;10.68;3.33;;;;;;;8.74;69.26;100744.13;4998410;28;20037;-43
2022/12/30 07:19:29;;;;;;;11.77;3.45;;;;;;;8.58;69.71;100739.50;5004400;28;20641;-41
2022/12/30 07:21:54;;;;;;;11.18;3.67;;;;;;;8.53;70.21;100736.81;5004707;28;20521;-42
2022/12/30 07:24:20;;;;;;;14.55;3.70;;;;;;;8.61;70.10;100723.97;5000279;28;20045;-42
2022/12/30 07:26:46;;;;;;;15.30;3.50;;;;;;;8.39;70.94;100714.88;5003529;28;20034;-41
2022/12/30 07:29:12;;;;;;;11.75;3.30;;;;;;;8.62;70.15;100711.00;5003826;28;20026;-43
2022/12/30 07:31:38;;;;;;;11.95;3.35;;;;;;;8.27;71.80;100701.63;5007552;28;20447;-40
2022/12/30 07:34:04;;;;;;;12.25;3.58;;;;;;;8.52;71.22;100704.78;5007113;28;20490;-42
2022/12/30 07:36:29;;;;;;;15.57;3.58;;;;;;;8.68;70.39;100705.03;5010193;28;20045;-45
2022/12/30 07:38:57;;;;;;;14.60;3.70;;;;;;;8.72;69.91;100702.50;5006583;28;20042;-42
2022/12/30 07:41:23;;;;;;;11.98;3.63;;;;;;;8.62;71.12;100694.53;5002357;28;20140;-42
2022/12/30 07:43:48;;;;;;;11.88;3.85;;;;;;;8.80;70.26;100692.25;5006015;28;20120;-42
2022/12/30 07:46:13;;;;;;;14.98;4.35;;;;;;;8.84;69.57;100697.53;5000309;28;20042;-41
2022/12/30 07:48:39;;;;;;;16.15;4.28;;;;;;;8.58;70.63;100701.41;5006237;28;20045;-44
2022/12/30 07:51:09;;;;;;;13.23;3.97;;;;;;;8.72;70.56;100691.28;5003406;28;20096;-41
2022/12/30 07:53:34;;;;;;;11.95;4.07;;;;;;;9.00;70.46;100690.88;5007608;28;20026;-42
2022/12/30 07:56:12;;;;;;;16.58;4.50;;;;;;;8.77;70.66;100674.03;5007554;28;20046;-41
2022/12/30 07:58:37;;;;;;;11.98;4.28;;;;;;;8.98;70.11;100689.97;5002785;28;20038;-41
2022/12/30 08:01:04;;;;;;;12.02;4.65;;;;;;;8.89;69.83;100685.50;5003472;28;20034;-40
2022/12/30 08:03:30;;;;;;;11.57;4.45;;;;;;;8.70;70.77;100678.25;5006662;28;20495;-43
2022/12/30 08:05:55;;;;;;;16.15;4.57;;;;;;;9.06;69.37;100677.09;5007287;28;20045;-44
2022/12/30 08:08:20;;;;;;;14.38;5.00;;;;;;;9.32;68.60;100676.69;5001348;28;20034;-41
2022/12/30 08:10:56;;;;;;;14.43;5.25;;;;;;;8.94;69.69;100665.66;5005594;28;20034;-43
2022/12/30 08:13:21;;;;;;;12.43;5.18;;;;;;;9.11;69.94;100675.44;5002278;28;20068;-43
2022/12/30 08:15:47;;;;;;;11.93;5.78;;;;;;;9.21;69.59;100673.00;5006925;28;20153;-43
2022/12/30 08:18:12;;;;;;;14.25;5.45;;;;;;;9.27;69.01;100656.66;5007112;28;20034;-42
2022/12/30 08:20:37;;;;;;;12.05;5.30;;;;;;;9.21;69.30;100678.22;5007835;28;20065;-45
2022/12/30 08:23:02;;;;;;;13.93;5.28;;;;;;;9.22;69.41;100661.75;5003492;28;20046;-42
2022/12/30 08:25:28;;;;;;;15.73;5.80;;;;;;;9.09;69.23;100658.97;5006269;28;20322;-47
2022/12/30 08:27:53;;;;;;;13.10;5.03;;;;;;;9.47;69.13;100662.13;5007750;28;20042;-42
2022/12/30 08:30:18;;;;;;;15.07;5.40;;;;;;;9.36;68.78;100667.19;5001897;28;20482;-41
2022/12/30 08:32:44;;;;;;;13.15;5.10;;;;;;;9.32;69.12;100666.28;5004063;28;20030;-44
2022/12/30 08:35:09;;;;;;;9.90;4.97;;;;;;;9.43;69.11;100666.44;5001140;28;20049;-42
2022/12/30 08:37:34;;;;;;;21.13;6.68;;;;;;;9.66;68.10;100662.41;5004277;28;20038;-43
2022/12/30 08:40:00;;;;;;;13.45;4.72;;;;;;;9.88;67.48;100655.75;5006465;28;20037;-41
2022/12/30 08:42:25;;;;;;;12.20;4.50;;;;;;;9.73;68.20;100651.22;5001910;28;20050;-43
2022/12/30 08:44:50;;;;;;;9.82;4.10;;;;;;;9.55;68.19;100650.09;5006257;28;20037;-42
2022/12/30 08:47:16;;;;;;;14.88;4.60;;;;;;;9.67;68.63;100643.34;5012268;28;20041;-42
2022/12/30 08:49:41;;;;;;;12.57;4.50;;;;;;;9.80;67.92;100643.50;5020256;28;20034;-44
2022/12/30 08:52:07;;;;;;;11.88;4.53;;;;;;;9.84;68.13;100632.25;5002434;28;20056;-42
2022/12/30 08:54:32;;;;;;;14.02;4.05;;;;;;;9.73;68.23;100625.19;5004356;28;20096;-43
2022/12/30 08:56:57;;;;;;;8.48;4.30;;;;;;;9.73;68.01;100629.53;5004316;28;20034;-44
2022/12/30 08:59:23;;;;;;;9.45;3.92;;;;;;;9.75;67.58;100601.81;5000427;28;20037;-45
2022/12/30 09:01:48;;;;;;;8.07;3.40;;;;;;;9.88;67.52;100613.25;5004046;28;20029;-44
2022/12/30 09:04:14;;;;;;;10.32;3.70;;;;;;;9.80;67.91;100609.66;5000589;28;20441;-40
2022/12/30 09:06:41;;;;;;;11.73;3.90;;;;;;;9.61;68.28;100600.75;5003810;28;20037;-45
2022/12/30 09:09:08;;;;;;;11.30;3.55;;;;;;;9.99;67.83;100593.41;5022888;22;20144;-42
2022/12/30 09:11:36;;;;;;;8.90;3.40;;;;;;;10.31;66.77;100594.63;5004014;28;20379;-41
2022/12/30 09:14:03;;;;;;;11.88;3.50;;;;;;;10.02;67.47;100591.69;5005310;28;20041;-42
2022/12/30 09:16:29;;;;;;;9.95;3.60;;;;;;;10.20;66.28;100587.56;5001032;28;20157;-44
2022/12/30 09:18:55;;;;;;;11.45;3.22;;;;;;;10.21;66.66;100586.72;5004594;28;20528;-42
2022/12/30 09:21:20;;;;;;;10.55;3.60;;;;;;;10.19;66.95;100589.28;5000340;28;20044;-43
2022/12/30 09:23:47;;;;;;;10.15;3.20;;;;;;;10.00;67.29;100574.31;5004312;28;20030;-44
2022/12/30 09:26:22;;;;;;;10.98;3.30;;;;;;;10.40;66.24;100578.22;5001233;28;20030;-44
2022/12/30 09:28:47;;;;;;;;;;;;;;;10.32;66.21;100575.53;5005541;28;20137;-40
2022/12/30 09:31:12;;;;;;;10.05;2.80;;;;;;;10.23;66.81;100572.84;5000734;28;20123;-41
2022/12/30 09:33:38;;;;;;;7.68;2.75;;;;;;;10.27;66.92;100559.00;5004451;28;20025;-42
2022/12/30 09:36:04;;;;;;;8.07;2.83;;;;;;;10.21;66.46;100550.25;5000409;28;20503;-44
2022/12/30 09:38:30;;;;;;;13.20;2.80;;;;;;;10.44;66.26;100541.75;5004392;28;20038;-42
2022/12/30 09:41:17;;;;;;;9.68;3.05;;;;;;;10.35;66.43;100540.81;5004287;28;20447;-42
2022/12/30 09:43:58;;;;;;;6.07;2.75;;;;;;;10.15;66.49;100524.97;5001199;28;20065;-42
2022/12/30 09:46:29;;;;;;;7.65;3.15;;;;;;;10.24;66.48;100522.50;5000117;28;20092;-42
2022/12/30 09:49:08;;;;;;;10.13;3.08;;;;;;;10.38;66.91;100520.00;5004132;28;20099;-41
2022/12/30 09:51:42;;;;;;;9.38;3.05;;;;;;;10.41;66.32;100528.72;4999899;28;20037;-44
2022/12/30 09:54:17;;;;;;;9.07;2.80;;;;;;;10.18;66.72;100514.63;4999821;28;20030;-44
2022/12/30 09:56:46;;;;;;;6.82;2.97;;;;;;;10.60;65.86;100516.72;5003869;28;20034;-41
2022/12/30 09:59:24;;;;;;;7.88;2.90;;;;;;;10.36;66.26;100508.69;5000265;28;20038;-43
2022/12/30 10:01:56;;;;;;;10.88;3.15;;;;;;;10.66;65.59;100500.25;5004367;28;20038;-41
2022/12/30 10:04:24;;;;;;;9.70;3.42;;;;;;;10.26;66.27;100499.91;5001589;28;20026;-42
2022/12/30 10:07:02;;;;;;;8.48;2.88;;;;;;;10.49;65.80;100485.34;5005991;28;20060;-41
2022/12/30 10:09:30;;;;;;;9.50;3.05;;;;;;;10.62;65.68;100472.38;5000934;28;20034;-44
2022/12/30 10:12:04;;;;;;;7.70;2.70;;;;;;;10.69;65.33;100471.56;5005005;28;20034;-41
2022/12/30 10:14:35;;;;;;;9.65;2.92;;;;;;;10.78;64.58;100464.69;5003932;28;20100;-42
2022/12/30 10:17:04;;;;;;;9.43;2.88;;;;;;;10.89;64.71;100452.59;5007995;28;20038;-42
2022/12/30 10:19:35;;;;;;;7.15;2.60;;;;;;;10.66;65.29;100448.97;5004096;28;20383;-40
2022/12/30 10:22:37;;;;;;;7.93;2.83;;;;;;;10.94;64.69;100445.66;5008020;28;20577;-42
2022/12/30 10:25:27;;;;;;;5.40;2.58;;;;;;;10.83;64.71;100415.16;5001244;28;20116;-58
2022/12/30 10:27:55;;;;;;;7.78;2.60;;;;;;;10.49;65.41;100425.38;5008655;28;20026;-42
2022/12/30 10:30:38;;;;;;;5.50;2.40;;;;;;;10.95;64.48;100410.88;5004184;28;20468;-44
2022/12/30 10:33:13;;;;;;;7.75;2.50;;;;;;;10.79;64.79;100395.16;5003771;28;20185;-40
2022/12/30 10:35:40;;;;;;;7.20;2.30;;;;;;;10.77;65.17;100391.66;5008232;28;20390;-42
2022/12/30 10:38:15;;;;;;;6.10;2.40;;;;;;;10.79;65.24;100377.78;5003537;28;20125;-41
2022/12/30 10:40:52;;;;;;;;;;;;;;;11.07;64.13;100378.75;5006872;28;20275;-40
2022/12/30 10:43:54;;;;;;;8.85;2.50;;;;;;;10.73;64.99;100350.81;5001361;28;19914;-42
2022/12/30 10:47:00;;;;;;;6.40;2.47;;;;;;;10.83;65.15;100352.59;4999456;28;20048;-41
2022/12/30 10:50:03;;;;;;;4.75;2.08;;;;;;;10.78;64.93;100323.03;4987089;28;20117;-40
2022/12/30 10:52:28;;;;;;;8.85;2.28;;;;;;;11.05;64.55;100325.69;4999737;28;20096;-41
2022/12/30 10:54:54;;;;;;;6.85;2.17;;;;;;;10.80;65.07;100310.84;5003949;28;20499;-41
2022/12/30 10:57:31;;;;;;;5.72;2.00;;;;;;;10.73;65.71;100307.38;4999077;28;20034;-42
2022/12/30 10:59:57;;;;;;;5.60;2.20;;;;;;;10.72;65.88;100294.31;5001869;28;20065;-43
2022/12/30 11:02:35;;;;;;;5.53;2.03;;;;;;;10.91;65.42;100270.03;5000480;28;20095;-40
2022/12/30 11:05:02;;;;;;;8.15;2.30;;;;;;;11.01;65.02;100263.09;5007116;28;20034;-42
2022/12/30 11:07:28;;;;;;;5.50;2.05;;;;;;;11.06;64.99;100248.31;5004542;28;20057;-41
2022/12/30 11:09:53;;;;;;;8.05;2.13;;;;;;;11.01;65.23;100248.31;5006472;28;20468;-41
2022/12/30 11:15:15;;;;;;;5.95;2.10;;;;;;;11.13;65.14;100222.25;5003726;28;20096;-42
2022/12/30 11:17:55;;;;;;;8.23;2.30;;;;;;;11.36;64.29;100223.13;5008313;28;20034;-41
2022/12/30 11:20:30;;;;;;;6.32;2.10;;;;;;;11.27;64.24;100215.31;5004514;28;20154;-42
2022/12/30 11:22:57;;;;;;;5.43;2.00;;;;;;;10.91;65.52;100205.72;5009285;28;20109;-41
2022/12/30 11:25:28;;;;;;;7.30;2.17;;;;;;;11.04;65.35;100196.13;5004049;28;20044;-41
2022/12/30 11:27:56;;;;;;;6.93;2.35;;;;;;;11.23;65.13;100173.53;5006368;28;20505;-41
2022/12/30 11:30:29;;;;;;;6.50;2.00;;;;;;;11.54;64.02;100162.19;5001717;28;20052;-39
2022/12/30 11:32:58;;;;;;;6.30;2.10;;;;;;;11.32;64.08;100153.53;5005882;28;20080;-41
2022/12/30 11:35:45;;;;;;;6.50;2.00;;;;;;;11.16;64.66;100143.97;5003202;28;20388;-42
2022/12/30 11:38:36;;;;;;;7.05;1.80;;;;;;;11.34;64.94;100136.13;5003830;28;20457;-42
2022/12/30 11:41:20;;;;;;;7.13;2.22;;;;;;;11.28;65.71;100119.63;5007262;28;20038;-42
2022/12/30 11:44:13;;;;;;;6.07;1.83;;;;;;;11.16;66.54;100093.56;5003704;28;20042;-41
2022/12/30 11:46:43;;;;;;;4.85;1.80;;;;;;;11.27;66.48;100103.09;5001829;28;20058;-41
2022/12/30 11:49:14;;;;;;;6.15;2.20;;;;;;;11.15;66.99;100087.47;5002272;28;20045;-41
2022/12/30 11:51:47;;;;;;;8.05;2.00;;;;;;;11.28;67.22;100077.88;5005786;28;20045;-40
2022/12/30 11:54:16;;;;;;;5.20;2.00;;;;;;;11.19;67.09;100067.44;5002619;28;20049;-42
2022/12/30 11:56:57;;;;;;;8.55;1.70;;;;;;;11.22;67.72;100063.09;5006901;28;20088;-41
2022/12/30 11:59:32;;;;;;;6.22;2.03;;;;;;;11.21;67.55;100048.31;5007352;28;20049;-40
2022/12/30 12:02:02;;;;;;;6.50;1.70;;;;;;;11.25;67.59;100043.97;5010133;28;20041;-40
2022/12/30 12:04:41;;;;;;;6.55;1.90;;;;;;;11.18;68.22;100037.00;5005353;28;20522;-40
2022/12/30 12:07:21;;;;;;;7.80;1.88;;;;;;;11.29;68.47;100043.94;5005939;28;20132;-40
2022/12/30 12:09:46;;;;;;;6.68;1.92;;;;;;;11.52;67.84;100030.84;5008975;28;20096;-42
2022/12/30 12:12:16;;;;;;;8.57;2.00;;;;;;;11.07;69.13;100016.19;5004808;28;20045;-43
2022/12/30 12:14:44;;;;;;;5.55;1.70;;;;;;;11.35;68.31;100017.81;5008898;28;20096;-39
2022/12/30 12:17:34;;;;;;;6.68;2.00;;;;;;;11.42;68.75;100015.19;5001180;28;20088;-43
2022/12/30 12:20:03;;;;;;;5.70;1.67;;;;;;;11.69;67.83;100004.66;5005462;28;20125;-40
2022/12/30 12:22:37;;;;;;;5.50;1.60;;;;;;;11.21;69.39;99980.50;5001865;28;20030;-40
2022/12/30 12:25:17;;;;;;;6.03;1.98;;;;;;;11.42;69.45;99969.09;5002583;28;20064;-55
2022/12/30 12:27:43;;;;;;;6.15;2.20;;;;;;;11.28;69.92;99937.81;5007193;28;20026;-41
2022/12/30 12:30:12;;;;;;;8.60;1.90;;;;;;;11.23;69.84;99917.84;5005590;28;20034;-41